Time;durP1;ratioP1;P1;durP2;ratioP2;P2;SDS_P1;SDS_P2;PMS_P1;PMS_P2;Temp;Humidity;BMP_temperature;BMP_pressure;BME280_temperature;BME280_humidity;BME280_pressure;Samples;Min_cycle;Max_cycle;Signal;HPM_P1;HPM_P2
2022/07/13 00:00:50;;;;;;;2.97;1.95;;;;;;;18.91;58.68;101646.91;5041067;28;20500;-69
2022/07/13 00:03:16;;;;;;;7.32;1.90;;;;;;;18.93;59.93;101647.63;5045332;28;20484;-69
2022/07/13 00:05:42;;;;;;;4.65;1.67;;;;;;;19.05;59.12;101665.38;5047544;28;20095;-69
2022/07/13 00:08:09;;;;;;;3.20;1.70;;;;;;;19.56;57.91;101663.38;5041192;28;20076;-69
2022/07/13 00:10:35;;;;;;;4.22;1.83;;;;;;;19.96;57.55;101676.31;5026393;28;20668;-71
2022/07/13 00:13:01;;;;;;;8.05;2.28;;;;;;;20.04;58.21;101671.28;5024955;28;20049;-69
2022/07/13 00:15:28;;;;;;;10.18;2.15;;;;;;;19.76;58.23;101659.22;5032911;28;20048;-69
2022/07/13 00:17:55;;;;;;;4.93;1.90;;;;;;;19.81;58.29;101649.91;5037922;28;20118;-69
2022/07/13 00:20:22;;;;;;;4.43;2.13;;;;;;;19.88;57.37;101652.97;5033006;28;20432;-70
2022/07/13 00:22:48;;;;;;;5.15;1.85;;;;;;;19.59;58.56;101641.00;5033819;28;20046;-70
2022/07/13 00:25:15;;;;;;;7.20;1.85;;;;;;;19.12;61.95;101640.03;5036321;28;20048;-69
2022/07/13 00:27:41;;;;;;;3.78;1.83;;;;;;;18.96;59.87;101642.94;5035422;28;20389;-69
2022/07/13 00:30:09;;;;;;;4.53;2.72;;;;;;;19.44;58.27;101651.81;5046616;28;20098;-70
2022/07/13 00:32:35;;;;;;;5.38;2.10;;;;;;;20.01;57.08;101659.06;5044365;28;20045;-70
2022/07/13 00:35:03;;;;;;;5.68;2.08;;;;;;;19.98;57.75;101656.63;5043715;28;20098;-70
2022/07/13 00:37:30;;;;;;;2.80;1.95;;;;;;;20.32;57.91;101654.91;5037493;28;20049;-69
2022/07/13 00:39:56;;;;;;;3.33;1.92;;;;;;;20.62;56.94;101654.31;5036729;28;20053;-70
2022/07/13 00:42:22;;;;;;;4.22;2.10;;;;;;;20.35;57.48;101644.00;5025736;28;20041;-70
2022/07/13 00:44:49;;;;;;;6.03;1.80;;;;;;;19.36;58.96;101643.53;5028720;28;20045;-70
2022/07/13 00:47:16;;;;;;;5.45;2.25;;;;;;;19.41;58.70;101640.53;5041984;28;20079;-70
2022/07/13 00:49:43;;;;;;;4.00;2.10;;;;;;;19.24;59.33;101635.63;5043275;28;20115;-70
2022/07/13 00:52:11;;;;;;;3.53;2.10;;;;;;;19.21;59.65;101639.38;5034068;28;20119;-70
2022/07/13 00:54:38;;;;;;;5.97;2.35;;;;;;;19.15;60.34;101626.50;5046634;28;20045;-70
2022/07/13 00:57:08;;;;;;;3.72;1.92;;;;;;;19.19;60.79;101622.66;5036265;28;20037;-70
2022/07/13 00:59:35;;;;;;;7.47;2.83;;;;;;;19.59;59.54;101619.72;5023961;28;20042;-70
2022/07/13 01:02:02;;;;;;;7.10;2.40;;;;;;;19.32;60.83;101615.50;5035201;28;20599;-70
2022/07/13 01:04:29;;;;;;;7.57;2.00;;;;;;;19.01;60.92;101615.19;5027150;28;20412;-70
2022/07/13 01:06:56;;;;;;;4.38;2.10;;;;;;;19.11;60.08;101606.44;5028094;28;20099;-70
2022/07/13 01:09:24;;;;;;;3.80;2.00;;;;;;;19.05;60.59;101614.84;5038412;28;20118;-69
2022/07/13 01:11:51;;;;;;;9.10;2.50;;;;;;;19.21;60.54;101601.28;5024903;28;20077;-69
2022/07/13 01:14:18;;;;;;;3.70;2.13;;;;;;;19.19;60.37;101609.38;5026863;28;20046;-69
2022/07/13 01:16:45;;;;;;;4.00;2.55;;;;;;;19.64;59.55;101601.59;5032019;28;20442;-69
2022/07/13 01:19:13;;;;;;;4.80;2.47;;;;;;;19.63;59.29;101603.41;5047083;28;20063;-69
2022/07/13 01:21:41;;;;;;;5.78;2.15;;;;;;;19.34;59.94;101608.25;5028182;28;20119;-69
2022/07/13 01:24:09;;;;;;;5.20;2.45;;;;;;;19.38;60.64;101616.84;5042594;28;20365;-69
2022/07/13 01:26:37;;;;;;;6.40;2.35;;;;;;;19.43;61.14;101620.03;5039054;28;20041;-69
2022/07/13 01:29:03;;;;;;;4.28;1.98;;;;;;;19.78;60.29;101604.91;5027803;28;20099;-69
2022/07/13 01:31:36;;;;;;;8.93;2.53;;;;;;;19.42;61.06;101616.53;5048443;28;20045;-69
2022/07/13 01:34:03;;;;;;;4.03;2.42;;;;;;;19.84;59.98;101611.59;5047312;28;20049;-69
2022/07/13 01:36:30;;;;;;;4.75;2.42;;;;;;;19.98;58.88;101599.88;5047582;28;20061;-69
2022/07/13 01:38:57;;;;;;;5.35;3.00;;;;;;;19.74;60.24;101586.63;5029048;28;20076;-70
2022/07/13 01:41:25;;;;;;;8.93;2.78;;;;;;;18.92;62.76;101598.94;5028024;28;20045;-70
2022/07/13 01:43:52;;;;;;;5.97;2.60;;;;;;;19.27;62.10;101598.16;5028603;28;20045;-70
2022/07/13 01:46:19;;;;;;;6.28;2.53;;;;;;;19.54;61.41;101592.63;5039353;28;20068;-68
2022/07/13 01:48:45;;;;;;;3.88;2.35;;;;;;;19.21;62.10;101594.19;5062537;28;20389;-68
2022/07/13 01:51:11;;;;;;;4.35;2.47;;;;;;;18.85;63.86;101594.19;5043468;28;20049;-68
2022/07/13 01:53:38;;;;;;;4.82;2.63;;;;;;;18.43;64.45;101592.78;5050165;28;20045;-69
2022/07/13 01:56:05;;;;;;;6.53;2.65;;;;;;;18.17;65.74;101583.16;5049977;28;20079;-68
2022/07/13 01:58:32;;;;;;;4.03;2.38;;;;;;;17.93;67.10;101569.78;5051058;28;20045;-68
2022/07/13 02:00:59;;;;;;;6.93;2.92;;;;;;;18.01;66.11;101572.75;5051903;28;20079;-68
2022/07/13 02:03:25;;;;;;;6.85;2.40;;;;;;;18.12;66.27;101566.69;5051465;28;20049;-68
2022/07/13 02:05:52;;;;;;;5.38;2.67;;;;;;;18.27;66.28;101563.81;5038215;28;20048;-68
2022/07/13 02:08:18;;;;;;;3.75;2.38;;;;;;;18.44;66.18;101560.81;5051520;28;20051;-68
2022/07/13 02:10:44;;;;;;;4.88;2.55;;;;;;;18.27;66.03;101565.63;5051494;28;20049;-68
2022/07/13 02:13:12;;;;;;;4.63;2.50;;;;;;;18.57;65.22;101565.28;5048852;28;20044;-68
2022/07/13 02:15:40;;;;;;;4.90;2.83;;;;;;;18.92;63.84;101556.44;5045996;28;20068;-68
2022/07/13 02:18:07;;;;;;;5.90;2.53;;;;;;;19.36;62.07;101563.75;5032092;28;20046;-69
2022/07/13 02:20:34;;;;;;;4.90;2.58;;;;;;;19.49;62.00;101562.88;5040881;28;20104;-68
2022/07/13 02:23:01;;;;;;;8.98;2.55;;;;;;;19.66;61.15;101568.59;5057437;28;20903;-69
2022/07/13 02:25:28;;;;;;;3.92;2.38;;;;;;;19.64;61.40;101562.53;5048866;28;20041;-68
2022/07/13 02:27:55;;;;;;;4.13;2.40;;;;;;;18.92;63.65;101556.44;5051700;28;20053;-68
2022/07/13 02:30:21;;;;;;;5.97;2.70;;;;;;;18.50;65.56;101546.25;5050442;28;20114;-69
2022/07/13 02:32:49;;;;;;;5.22;2.70;;;;;;;18.45;65.42;101545.72;5051011;28;20424;-68
2022/07/13 02:35:15;;;;;;;4.65;2.40;;;;;;;18.58;65.28;101543.06;5045296;28;20099;-68
2022/07/13 02:37:42;;;;;;;8.60;2.65;;;;;;;18.41;65.80;101544.25;5040734;28;20385;-68
2022/07/13 02:40:12;;;;;;;3.97;1.90;;;;;;;18.83;65.02;101546.50;5050933;28;20040;-69
2022/07/13 02:42:38;;;;;;;4.63;2.50;;;;;;;19.19;63.75;101558.00;5058492;28;20135;-68
2022/07/13 02:45:06;;;;;;;4.35;2.65;;;;;;;19.26;63.20;101545.94;5049706;28;20483;-68
2022/07/13 02:47:32;;;;;;;8.50;2.58;;;;;;;19.17;64.08;101549.31;5045208;28;20094;-68
2022/07/13 02:50:00;;;;;;;4.55;2.35;;;;;;;19.02;63.86;101551.31;5049633;28;20046;-68
2022/07/13 02:52:26;;;;;;;4.72;2.60;;;;;;;18.80;64.91;101553.84;5037067;28;20408;-70
2022/07/13 02:54:52;;;;;;;4.85;2.50;;;;;;;18.76;65.38;101547.06;5044977;28;20048;-68
2022/07/13 02:57:19;;;;;;;4.15;2.20;;;;;;;18.70;64.44;101550.16;5044117;28;20096;-68
2022/07/13 02:59:45;;;;;;;6.68;2.55;;;;;;;19.20;63.42;101559.72;5038663;28;20052;-68
2022/07/13 03:02:11;;;;;;;3.95;2.47;;;;;;;19.37;62.33;101556.63;5040311;28;20467;-69
2022/07/13 03:04:38;;;;;;;5.18;2.60;;;;;;;19.09;63.28;101560.50;5028354;28;20041;-68
2022/07/13 03:07:06;;;;;;;4.60;2.30;;;;;;;18.89;63.58;101550.50;5040898;28;20515;-68
2022/07/13 03:09:32;;;;;;;6.18;2.40;;;;;;;19.09;63.50;101549.03;5046448;28;20048;-68
2022/07/13 03:11:58;;;;;;;4.75;2.42;;;;;;;19.01;63.70;101544.28;5041004;28;20069;-68
2022/07/13 03:14:25;;;;;;;7.75;2.50;;;;;;;18.85;64.30;101541.03;5028567;28;20481;-68
2022/07/13 03:16:51;;;;;;;4.35;2.25;;;;;;;18.70;64.82;101542.19;5037093;28;20106;-69
2022/07/13 03:19:18;;;;;;;3.13;2.22;;;;;;;18.68;65.36;101541.44;5050724;28;20487;-69
2022/07/13 03:21:44;;;;;;;7.20;2.55;;;;;;;18.76;65.16;101539.06;5032417;28;20056;-69
2022/07/13 03:24:12;;;;;;;5.03;2.45;;;;;;;18.98;64.90;101544.50;5049334;28;20101;-69
2022/07/13 03:26:38;;;;;;;4.05;2.30;;;;;;;18.80;66.13;101552.03;5034628;28;20108;-68
2022/07/13 03:29:04;;;;;;;7.82;2.70;;;;;;;19.15;65.05;101552.06;5028534;28;20335;-68
2022/07/13 03:31:31;;;;;;;5.70;2.65;;;;;;;19.42;63.42;101552.69;5038205;28;20651;-68
2022/07/13 03:33:58;;;;;;;4.55;2.53;;;;;;;19.40;63.59;101554.56;5046622;28;20057;-69
2022/07/13 03:36:24;;;;;;;4.93;2.42;;;;;;;19.31;64.19;101549.13;5034090;28;20046;-69
2022/07/13 03:38:51;;;;;;;4.28;2.25;;;;;;;19.30;63.33;101544.75;5025957;28;20053;-68
2022/07/13 03:41:18;;;;;;;8.48;2.35;;;;;;;19.00;64.10;101545.22;5036605;28;20072;-69
2022/07/13 03:43:45;;;;;;;4.25;2.50;;;;;;;19.02;64.37;101542.47;5039995;28;20053;-69
2022/07/13 03:46:11;;;;;;;4.25;2.17;;;;;;;19.09;63.78;101549.88;5027870;28;20103;-69
2022/07/13 03:48:37;;;;;;;4.10;2.10;;;;;;;19.34;63.19;101544.41;5029582;28;20046;-69
2022/07/13 03:51:04;;;;;;;5.43;2.22;;;;;;;19.41;64.18;101537.69;5032197;28;20080;-69
2022/07/13 03:53:30;;;;;;;3.83;2.30;;;;;;;19.38;64.21;101527.25;5033247;28;20045;-69
2022/07/13 03:55:56;;;;;;;2.90;2.00;;;;;;;19.22;64.61;101531.19;5043826;28;20053;-69
2022/07/13 03:58:24;;;;;;;3.90;2.00;;;;;;;19.43;62.98;101527.81;5051065;28;20052;-69
2022/07/13 04:00:51;;;;;;;9.80;2.60;;;;;;;19.43;62.71;101529.63;5046751;28;20106;-69
2022/07/13 04:03:17;;;;;;;5.22;2.45;;;;;;;19.10;63.52;101530.31;5048366;28;20549;-69
2022/07/13 04:05:43;;;;;;;4.32;2.22;;;;;;;19.36;62.41;101521.19;5039492;28;20536;-69
2022/07/13 04:08:09;;;;;;;6.35;3.10;;;;;;;19.35;60.88;101522.19;5046768;28;20041;-69
2022/07/13 04:10:36;;;;;;;3.45;2.05;;;;;;;19.48;61.42;101518.59;5046823;28;20103;-69
2022/07/13 04:13:02;;;;;;;3.92;2.00;;;;;;;19.47;61.93;101509.81;5046961;28;20486;-68
2022/07/13 04:15:30;;;;;;;5.75;2.50;;;;;;;19.25;61.59;101515.84;5048431;28;20557;-68
2022/07/13 04:17:56;;;;;;;3.00;1.80;;;;;;;19.31;61.62;101504.75;5045441;28;20118;-68
2022/07/13 04:20:23;;;;;;;3.00;2.00;;;;;;;19.37;60.81;101517.56;5039878;28;20049;-69
2022/07/13 04:22:49;;;;;;;2.55;1.75;;;;;;;19.39;60.96;101518.31;5028937;28;20045;-68
2022/07/13 04:25:16;;;;;;;6.93;2.22;;;;;;;19.78;59.76;101513.56;5026020;28;20092;-69
2022/07/13 04:27:42;;;;;;;3.80;2.00;;;;;;;19.44;60.97;101518.84;5050948;28;20094;-69
2022/07/13 04:30:10;;;;;;;4.40;1.90;;;;;;;19.72;59.93;101525.56;5066286;28;20044;-69
2022/07/13 04:32:37;;;;;;;5.40;2.00;;;;;;;19.71;59.99;101513.22;5061819;28;20076;-69
2022/07/13 04:35:04;;;;;;;3.65;1.98;;;;;;;20.14;59.25;101518.66;5026106;28;20045;-69
2022/07/13 04:37:30;;;;;;;5.70;2.30;;;;;;;20.62;58.13;101521.91;5044494;28;20094;-69
2022/07/13 04:39:57;;;;;;;4.15;2.10;;;;;;;19.99;59.00;101524.38;5038314;28;20095;-69
2022/07/13 04:42:23;;;;;;;3.47;1.80;;;;;;;20.04;59.88;101524.84;5026219;28;20053;-69
2022/07/13 04:44:50;;;;;;;6.93;1.90;;;;;;;20.25;59.69;101526.66;5034553;28;20049;-69
2022/07/13 04:47:16;;;;;;;4.70;1.98;;;;;;;19.99;60.37;101511.91;5026574;28;20053;-69
2022/07/13 04:49:44;;;;;;;4.43;2.10;;;;;;;20.34;60.18;101523.28;5033538;28;20118;-69
2022/07/13 04:52:10;;;;;;;4.55;2.28;;;;;;;20.08;60.05;101519.16;5040148;28;20046;-68
2022/07/13 04:54:36;;;;;;;5.20;2.15;;;;;;;20.66;59.90;101522.50;5036181;28;20052;-68
2022/07/13 04:57:03;;;;;;;3.88;2.10;;;;;;;20.82;58.88;101522.94;5029223;28;20582;-68
2022/07/13 04:59:29;;;;;;;5.25;2.17;;;;;;;20.73;59.51;101515.72;5026249;28;20103;-68
2022/07/13 05:01:56;;;;;;;5.97;2.00;;;;;;;20.30;61.02;101510.34;5030518;28;20147;-68
2022/07/13 05:04:22;;;;;;;8.05;2.08;;;;;;;20.11;61.75;101504.75;5026696;28;20042;-69
2022/07/13 05:06:50;;;;;;;2.88;1.73;;;;;;;20.17;61.08;101505.13;5030543;28;20041;-69
2022/07/13 05:09:16;;;;;;;4.60;2.40;;;;;;;20.04;62.13;101496.41;5045561;28;20049;-69
2022/07/13 05:11:42;;;;;;;4.53;2.30;;;;;;;19.83;62.51;101495.44;5027904;28;20053;-69
2022/07/13 05:14:09;;;;;;;3.97;1.95;;;;;;;19.50;63.46;101492.75;5027209;28;20184;-69
2022/07/13 05:16:35;;;;;;;6.40;2.35;;;;;;;19.71;63.67;101502.56;5030984;28;20048;-69
2022/07/13 05:19:02;;;;;;;6.95;2.30;;;;;;;19.50;63.62;101493.59;5040229;28;20126;-69
2022/07/13 05:21:28;;;;;;;11.18;2.55;;;;;;;19.55;63.63;101491.41;5038710;28;20045;-69
2022/07/13 05:23:56;;;;;;;5.03;2.67;;;;;;;19.51;63.55;101481.97;5025333;28;20050;-69
2022/07/13 05:26:22;;;;;;;7.05;2.50;;;;;;;19.48;63.57;101489.34;5026107;28;20107;-69
2022/07/13 05:28:48;;;;;;;3.20;2.10;;;;;;;19.66;62.58;101478.13;5026595;28;20145;-69
2022/07/13 05:31:15;;;;;;;4.85;2.42;;;;;;;19.87;62.32;101483.59;5027093;28;20095;-69
2022/07/13 05:33:42;;;;;;;4.55;2.60;;;;;;;19.95;62.38;101473.19;5027117;28;20045;-69
2022/07/13 05:36:08;;;;;;;6.07;2.40;;;;;;;20.38;63.58;101479.47;5031555;28;20055;-69
2022/07/13 05:38:35;;;;;;;4.32;2.63;;;;;;;21.10;61.16;101474.34;5028136;28;20099;-69
2022/07/13 05:41:03;;;;;;;5.55;3.10;;;;;;;20.97;59.53;101478.19;5037183;28;20056;-69
2022/07/13 05:43:29;;;;;;;7.43;2.50;;;;;;;21.84;56.89;101483.94;5045472;28;20500;-69
2022/07/13 05:45:56;;;;;;;8.32;2.72;;;;;;;;;;5036090;28;20075;-69
2022/07/13 05:48:23;;;;;;;4.40;2.40;;;;;;;22.73;54.72;101483.13;5038971;28;20119;-69
2022/07/13 05:50:51;;;;;;;4.97;3.03;;;;;;;22.97;53.79;101468.50;5045198;28;20045;-69
2022/07/13 05:53:19;;;;;;;12.93;3.25;;;;;;;22.41;54.95;101477.16;5045800;28;20071;-69
2022/07/13 05:55:45;;;;;;;4.88;2.55;;;;;;;23.34;52.05;101474.81;5047633;28;20060;-69
2022/07/13 05:58:13;;;;;;;5.28;2.60;;;;;;;23.04;53.71;101475.81;5054719;28;20059;-69
2022/07/13 06:00:39;;;;;;;4.90;2.60;;;;;;;23.40;54.32;101479.56;5031174;28;20041;-69
2022/07/13 06:03:05;;;;;;;9.93;2.80;;;;;;;23.05;54.73;101474.84;5026307;28;20045;-69
2022/07/13 06:05:32;;;;;;;4.78;2.50;;;;;;;23.16;53.71;101472.03;5034974;28;20488;-69
2022/07/13 06:07:58;;;;;;;5.75;2.58;;;;;;;23.51;53.54;101475.91;5027293;28;20049;-69
2022/07/13 06:10:25;;;;;;;4.07;2.40;;;;;;;23.21;53.06;101469.75;5028172;28;20049;-69
2022/07/13 06:12:51;;;;;;;4.32;2.47;;;;;;;22.90;56.12;101470.06;5030545;28;20069;-69
2022/07/13 06:15:19;;;;;;;6.05;2.40;;;;;;;23.32;54.77;101459.91;5030640;28;20045;-69
2022/07/13 06:17:45;;;;;;;4.18;2.15;;;;;;;23.56;53.69;101462.94;5031405;28;20050;-69
2022/07/13 06:20:12;;;;;;;6.95;2.75;;;;;;;23.59;52.11;101451.94;5032898;28;20067;-68
2022/07/13 06:22:38;;;;;;;3.00;2.00;;;;;;;23.22;53.15;101450.03;5032009;28;20099;-68
2022/07/13 06:25:05;;;;;;;6.85;2.42;;;;;;;23.53;51.83;101455.22;5052898;28;20041;-69
2022/07/13 06:27:32;;;;;;;5.50;2.35;;;;;;;23.88;51.73;101451.81;5051678;28;20099;-69
2022/07/13 06:29:58;;;;;;;2.92;2.03;;;;;;;23.93;51.95;101452.25;5052214;28;20053;-68
2022/07/13 06:32:26;;;;;;;5.75;2.20;;;;;;;23.53;52.52;101447.19;5051270;28;20040;-68
2022/07/13 06:34:52;;;;;;;3.15;2.00;;;;;;;23.65;51.58;101440.69;5031389;28;20049;-69
2022/07/13 06:37:18;;;;;;;3.92;2.20;;;;;;;23.42;51.99;101440.19;5035370;28;20492;-68
2022/07/13 06:39:45;;;;;;;5.47;2.20;;;;;;;23.68;52.21;101441.22;5051557;28;20053;-68
2022/07/13 06:42:11;;;;;;;4.60;2.42;;;;;;;23.99;52.87;101454.31;5058368;28;20241;-68
2022/07/13 06:44:37;;;;;;;4.15;2.03;;;;;;;24.03;51.88;101450.34;5071729;23;20099;-68
2022/07/13 06:47:04;;;;;;;4.40;2.05;;;;;;;23.42;52.83;101460.75;5050003;28;20451;-68
2022/07/13 06:49:31;;;;;;;3.63;2.20;;;;;;;22.88;53.68;101456.81;5047593;28;20075;-68
2022/07/13 06:51:58;;;;;;;3.05;2.15;;;;;;;23.29;56.76;101445.78;5042475;28;20637;-68
2022/07/13 06:54:24;;;;;;;4.53;2.20;;;;;;;23.56;52.73;101452.25;5035897;28;20068;-68
2022/07/13 06:56:50;;;;;;;7.60;2.28;;;;;;;23.54;52.48;101454.25;5034900;28;20455;-68
2022/07/13 06:59:17;;;;;;;5.13;2.13;;;;;;;23.22;53.59;101449.19;5048312;28;20098;-68
2022/07/13 07:01:43;;;;;;;6.32;2.33;;;;;;;23.63;53.10;101442.63;5048589;28;20049;-68
2022/07/13 07:04:09;;;;;;;14.07;2.28;;;;;;;24.50;52.75;101443.88;5046861;28;20086;-68
2022/07/13 07:06:37;;;;;;;7.45;2.40;;;;;;;24.74;52.47;101445.97;5048811;28;20408;-68
2022/07/13 07:09:03;;;;;;;4.00;2.28;;;;;;;25.10;51.74;101442.28;5047709;28;20067;-68
2022/07/13 07:11:30;;;;;;;3.45;2.15;;;;;;;24.66;51.50;101443.19;5046209;28;20045;-68
2022/07/13 07:13:57;;;;;;;3.85;1.90;;;;;;;24.61;51.28;101434.78;5048863;28;20072;-68
2022/07/13 07:16:24;;;;;;;6.90;2.72;;;;;;;25.14;50.31;101440.13;5048550;28;20136;-68
2022/07/13 07:18:50;;;;;;;4.55;2.15;;;;;;;25.04;50.72;101436.69;5048117;28;20103;-68
2022/07/13 07:21:17;;;;;;;3.53;2.00;;;;;;;25.17;49.10;101432.59;5041786;28;20056;-68
2022/07/13 07:23:44;;;;;;;4.18;2.22;;;;;;;25.38;47.69;101426.03;5047953;28;20099;-68
2022/07/13 07:26:11;;;;;;;3.28;2.00;;;;;;;24.96;50.34;101416.00;5048173;28;20049;-68
2022/07/13 07:28:37;;;;;;;3.10;1.70;;;;;;;25.47;50.15;101419.69;5048464;28;20126;-68
2022/07/13 07:31:03;;;;;;;3.75;2.00;;;;;;;25.08;50.86;101412.09;5046946;28;20041;-68
2022/07/13 07:33:30;;;;;;;3.20;1.70;;;;;;;24.65;50.17;101393.22;5048083;28;20064;-69
2022/07/13 07:35:56;;;;;;;5.50;1.80;;;;;;;25.26;48.09;101398.63;5043428;28;20100;-68
2022/07/13 07:38:22;;;;;;;5.20;2.10;;;;;;;25.63;47.66;101407.25;5027401;28;20730;-68
2022/07/13 07:40:50;;;;;;;4.47;2.00;;;;;;;25.42;48.60;101404.09;5016926;28;20049;-68
2022/07/13 07:43:16;;;;;;;4.85;1.63;;;;;;;25.74;49.21;101403.44;5009778;28;20096;-68
2022/07/13 07:45:43;;;;;;;3.20;1.50;;;;;;;26.16;45.90;101403.41;5007447;28;20045;-68
2022/07/13 07:48:09;;;;;;;6.15;1.90;;;;;;;26.42;48.09;101398.78;5010957;28;20072;-68
2022/07/13 07:50:36;;;;;;;6.07;2.05;;;;;;;26.46;44.29;101402.81;5018297;28;20038;-68
2022/07/13 07:53:02;;;;;;;4.75;1.75;;;;;;;26.13;44.98;101401.88;5006411;28;20054;-68
2022/07/13 07:55:28;;;;;;;4.75;1.95;;;;;;;26.77;46.41;101397.63;5007009;28;20046;-68
2022/07/13 07:57:56;;;;;;;2.53;1.70;;;;;;;27.54;44.39;101398.91;5008191;28;20130;-68
2022/07/13 08:00:22;;;;;;;3.67;1.70;;;;;;;26.83;42.36;101398.84;5007859;28;20046;-68
2022/07/13 08:02:49;;;;;;;3.70;1.50;;;;;;;26.82;43.22;101394.44;5013301;28;20052;-68
2022/07/13 08:05:15;;;;;;;5.95;1.92;;;;;;;27.41;42.40;101396.75;5017044;28;20038;-68
2022/07/13 08:07:44;;;;;;;4.88;1.60;;;;;;;27.96;41.93;101387.81;5020060;28;20053;-68
2022/07/13 08:10:12;;;;;;;6.43;1.77;;;;;;;28.07;40.75;101384.72;5028607;28;20107;-68
2022/07/13 08:12:39;;;;;;;3.17;1.40;;;;;;;28.46;39.39;101385.47;5025215;28;20452;-68
2022/07/13 08:15:08;;;;;;;5.95;1.38;;;;;;;28.22;41.07;101382.97;5026261;28;20084;-68
2022/07/13 08:17:35;;;;;;;4.93;1.63;;;;;;;28.70;39.66;101381.78;5026732;28;20057;-68
2022/07/13 08:20:01;;;;;;;2.65;1.13;;;;;;;28.58;38.61;101379.66;5019427;28;20073;-68
2022/07/13 08:22:28;;;;;;;7.88;1.50;;;;;;;28.88;38.18;101379.59;5012634;28;20394;-68
2022/07/13 08:24:54;;;;;;;4.72;1.65;;;;;;;28.76;38.59;101377.50;5025753;28;20050;-68
2022/07/13 08:27:21;;;;;;;2.85;1.60;;;;;;;29.15;37.99;101378.16;5029009;28;20064;-68
2022/07/13 08:29:47;;;;;;;4.30;1.30;;;;;;;29.55;38.02;101376.91;5021939;28;20421;-67
2022/07/13 08:32:15;;;;;;;3.50;1.42;;;;;;;29.89;36.28;101376.34;5015552;28;20459;-67
2022/07/13 08:40:13;;;;;;;5.20;1.80;;;;;;;30.05;35.24;101377.94;5025195;28;20056;-67
2022/07/13 08:42:40;;;;;;;4.47;1.52;;;;;;;30.60;35.59;101364.63;5025065;28;20053;-67
2022/07/13 08:45:07;;;;;;;2.75;1.58;;;;;;;30.96;33.80;101372.63;5007286;28;20662;-67
2022/07/13 08:47:36;;;;;;;5.68;1.85;;;;;;;31.20;34.50;101360.53;5014754;28;20049;-67
2022/07/13 08:50:06;;;;;;;7.32;1.73;;;;;;;31.09;32.64;101358.38;5021335;28;20092;-67
2022/07/13 08:52:34;;;;;;;5.70;1.50;;;;;;;31.29;35.23;101368.31;5022071;28;20095;-67
2022/07/13 08:55:03;;;;;;;9.63;1.67;;;;;;;31.42;31.98;101353.16;5025367;28;20041;-67
2022/07/13 08:57:29;;;;;;;5.03;1.70;;;;;;;31.65;32.38;101354.56;5024519;28;20080;-67
2022/07/13 08:59:56;;;;;;;8.32;1.63;;;;;;;31.66;31.21;101356.22;5025326;28;20041;-67
2022/07/13 09:02:22;;;;;;;3.30;1.50;;;;;;;32.06;32.02;101367.22;5024243;28;20130;-67
2022/07/13 09:04:50;;;;;;;4.38;1.40;;;;;;;32.23;31.39;101357.69;5025019;28;20409;-67
2022/07/13 09:07:17;;;;;;;4.07;2.05;;;;;;;32.34;29.36;101351.63;5025072;28;20057;-67
2022/07/13 09:09:43;;;;;;;6.07;2.28;;;;;;;32.07;29.27;101353.50;5024348;28;20417;-67
2022/07/13 09:12:16;;;;;;;2.35;1.60;;;;;;;32.18;32.33;101357.47;5024711;28;20064;-67
2022/07/13 09:14:44;;;;;;;4.78;1.52;;;;;;;31.95;32.70;101354.25;5021233;28;20041;-67
2022/07/13 09:17:26;;;;;;;4.53;1.60;;;;;;;31.85;31.93;101366.28;5025015;28;20479;-67
2022/07/13 09:19:54;;;;;;;4.50;1.67;;;;;;;31.37;31.62;101356.47;5018813;28;20601;-67
2022/07/13 09:22:20;;;;;;;5.47;1.65;;;;;;;31.42;30.04;101356.69;5023755;28;20451;-67
2022/07/13 09:24:49;;;;;;;5.95;1.80;;;;;;;31.73;31.64;101358.97;5025094;28;20053;-67
2022/07/13 09:27:16;;;;;;;3.15;1.58;;;;;;;31.95;31.18;101355.09;5025849;28;20046;-66
2022/07/13 09:29:43;;;;;;;2.97;1.50;;;;;;;31.98;30.79;101351.13;5025595;28;20053;-66
2022/07/13 09:32:11;;;;;;;5.75;1.73;;;;;;;31.77;30.99;101347.53;5023923;28;20049;-67
2022/07/13 09:34:46;;;;;;;2.70;1.33;;;;;;;32.04;30.49;101340.28;5012221;28;20111;-67
2022/07/13 09:37:17;;;;;;;3.53;1.60;;;;;;;32.23;30.59;101349.53;5019307;28;20066;-67
2022/07/13 09:39:56;;;;;;;6.35;1.80;;;;;;;32.16;29.67;101340.53;5026942;28;20041;-67
2022/07/13 09:42:26;;;;;;;6.97;1.60;;;;;;;32.13;29.38;101338.25;5023615;28;20042;-67
2022/07/13 09:47:41;;;;;;;2.90;1.55;;;;;;;32.22;29.22;101346.00;5031265;28;20076;-67
2022/07/13 09:50:08;;;;;;;3.80;1.55;;;;;;;32.01;28.73;101335.25;5021604;28;20042;-67
2022/07/13 09:52:36;;;;;;;7.60;1.80;;;;;;;32.41;28.85;101338.09;5012630;28;20118;-67
2022/07/13 09:55:04;;;;;;;3.78;1.38;;;;;;;32.12;29.14;101340.13;5010624;28;20631;-67
2022/07/13 09:57:34;;;;;;;3.00;1.60;;;;;;;32.02;31.05;101339.66;5013586;28;20053;-67
2022/07/13 10:00:02;;;;;;;2.25;1.30;;;;;;;32.28;28.58;101328.91;5020304;28;20050;-67
2022/07/13 10:02:30;;;;;;;6.35;1.55;;;;;;;32.54;27.96;101324.53;5031390;28;20045;-67
2022/07/13 10:04:58;;;;;;;2.88;1.27;;;;;;;32.45;25.14;101326.59;5024664;28;20109;-67
2022/07/13 10:07:25;;;;;;;2.72;1.10;;;;;;;32.26;26.51;101324.72;5027798;28;20052;-67
2022/07/13 10:09:53;;;;;;;1.30;1.00;;;;;;;32.42;27.09;101313.44;5026926;28;20049;-67
2022/07/13 10:12:20;;;;;;;2.63;1.25;;;;;;;32.54;26.70;101308.22;5017791;28;20512;-67
2022/07/13 10:14:47;;;;;;;2.15;1.10;;;;;;;32.71;25.28;101317.63;5015842;28;20050;-67
2022/07/13 10:17:15;;;;;;;1.92;1.17;;;;;;;32.72;22.78;101306.59;5010804;28;20092;-67
2022/07/13 10:19:44;;;;;;;2.50;1.10;;;;;;;33.11;25.50;101313.84;5025689;28;20045;-67
2022/07/13 10:22:16;;;;;;;2.30;0.98;;;;;;;33.40;26.52;101317.97;5024123;28;20045;-67
2022/07/13 10:24:51;;;;;;;1.88;1.23;;;;;;;33.55;24.19;101315.81;5030313;28;20045;-67
2022/07/13 10:27:25;;;;;;;2.05;1.10;;;;;;;33.57;25.66;101316.41;5021270;28;20041;-67
2022/07/13 10:29:54;;;;;;;6.30;1.10;;;;;;;33.47;25.00;101313.34;5019411;28;20104;-67
2022/07/13 10:32:22;;;;;;;3.47;1.33;;;;;;;33.30;25.05;101319.47;5018458;28;20138;-67
2022/07/13 10:34:53;;;;;;;2.70;1.10;;;;;;;33.22;24.02;101309.66;5025778;28;20069;-67
2022/07/13 10:37:20;;;;;;;2.10;0.90;;;;;;;33.61;23.03;101314.94;5029337;28;20115;-67
2022/07/13 10:40:15;;;;;;;3.88;1.10;;;;;;;33.45;21.83;101309.97;5028527;28;20214;-67
2022/07/13 10:43:11;;;;;;;4.68;1.10;;;;;;;33.66;23.56;101307.00;5028314;28;20041;-67
2022/07/13 10:45:39;;;;;;;3.90;1.20;;;;;;;33.40;24.17;101296.22;5017517;28;20508;-67
2022/07/13 10:48:10;;;;;;;3.28;0.98;;;;;;;33.61;21.75;101304.06;5028474;28;20139;-67
2022/07/13 10:50:44;;;;;;;1.98;0.85;;;;;;;33.67;21.24;101295.06;5010663;28;20412;-67
2022/07/13 10:53:11;;;;;;;4.78;1.27;;;;;;;33.75;21.29;101283.94;5012471;28;20049;-67
2022/07/13 10:55:46;;;;;;;1.95;0.85;;;;;;;33.61;22.02;101292.34;5014516;28;20061;-67
2022/07/13 10:58:45;;;;;;;3.35;1.13;;;;;;;32.94;22.74;101284.59;5023254;28;20073;-68
2022/07/13 11:01:44;;;;;;;2.75;1.15;;;;;;;32.92;22.13;101292.97;5023963;28;20125;-68
2022/07/13 11:04:12;;;;;;;5.97;1.20;;;;;;;32.85;25.96;101278.59;5025328;28;20653;-69
2022/07/13 11:06:39;;;;;;;1.88;1.00;;;;;;;32.47;23.27;101281.09;5012588;28;20460;-68
2022/07/13 11:09:12;;;;;;;2.75;1.00;;;;;;;31.77;25.02;101279.72;5029012;28;20068;-68
2022/07/13 11:11:49;;;;;;;2.97;1.00;;;;;;;31.92;24.97;101281.41;5027753;28;20408;-68
2022/07/13 11:14:48;;;;;;;3.58;1.10;;;;;;;32.06;23.38;101274.97;5026643;28;20045;-68
2022/07/13 11:17:16;;;;;;;3.28;1.30;;;;;;;32.40;22.74;101272.13;5025289;28;20137;-68
2022/07/13 11:19:50;;;;;;;4.00;1.58;;;;;;;32.61;23.48;101273.78;5022088;28;20046;-68
2022/07/13 11:22:17;;;;;;;6.88;1.33;;;;;;;32.60;22.71;101274.84;5023597;28;20042;-68
2022/07/13 11:27:46;;;;;;;2.67;1.27;;;;;;;33.15;25.72;101257.19;5028277;28;20044;-68
2022/07/13 11:30:15;;;;;;;2.83;1.30;;;;;;;33.40;25.39;101251.88;5023090;28;20497;-68
2022/07/13 11:32:42;;;;;;;3.75;1.33;;;;;;;33.79;27.96;101251.69;5028016;28;20087;-68
2022/07/13 11:35:08;;;;;;;6.13;1.33;;;;;;;33.73;26.00;101241.69;5026815;28;20115;-68
2022/07/13 11:37:36;;;;;;;4.72;1.38;;;;;;;33.35;24.13;101246.25;5028186;28;20049;-68
2022/07/13 11:40:03;;;;;;;6.40;1.45;;;;;;;33.62;27.30;101243.19;5028503;28;20083;-68